Time;durP1;ratioP1;P1;durP2;ratioP2;P2;SDS_P1;SDS_P2;PMS_P1;PMS_P2;Temp;Humidity;BMP_temperature;BMP_pressure;BME280_temperature;BME280_humidity;BME280_pressure;Samples;Min_cycle;Max_cycle;Signal;HPM_P1;HPM_P2
2021/12/05 00:24:14;;;;;;;0.50;0.50;;;;;;;;;;5053851;28;20175;-65
2021/12/05 00:26:41;;;;;;;0.50;0.50;;;;;;;;;;5053761;28;20172;-65
2021/12/05 00:48:06;;;;;;;0.43;0.43;;;;;;;;;;5053461;28;20188;-65
2021/12/05 00:53:51;;;;;;;0.50;0.50;;;;;;;;;;5053677;28;20182;-65
2021/12/05 00:59:13;;;;;;;0.50;0.50;;;;;;;;;;5053475;28;20185;-65
2021/12/05 01:10:03;;;;;;;0.50;0.50;;;;;;;;;;5053101;28;20565;-65
2021/12/05 01:12:33;;;;;;;0.50;0.50;;;;;;;;;;5052387;28;20557;-65
2021/12/05 01:15:07;;;;;;;0.50;0.50;;;;;;;;;;5052980;28;20584;-65
2021/12/05 01:17:43;;;;;;;0.50;0.50;;;;;;;;;;5053286;28;20174;-65
2021/12/05 01:20:15;;;;;;;0.50;0.50;;;;;;;;;;5052612;28;20189;-65
2021/12/05 01:22:48;;;;;;;0.50;0.50;;;;;;;;;;5052901;28;20544;-65
2021/12/05 01:25:30;;;;;;;0.50;0.50;;;;;;;;;;5034890;28;20205;-64
2021/12/05 01:28:31;;;;;;;0.50;0.50;;;;;;;;;;5035045;28;20182;-65
2021/12/05 01:33:19;;;;;;;0.60;0.60;;;;;;;;;;5052729;28;20188;-65
2021/12/05 01:35:58;;;;;;;0.50;0.50;;;;;;;;;;5052447;28;20201;-65
2021/12/05 01:38:44;;;;;;;0.60;0.60;;;;;;;;;;5033827;28;20180;-65
2021/12/05 01:52:26;;;;;;;0.50;0.50;;;;;;;;;;5052526;28;20233;-64
2021/12/05 01:58:08;;;;;;;0.50;0.50;;;;;;;;;;5052382;28;20709;-64
2021/12/05 02:39:25;;;;;;;0.50;0.50;;;;;;;;;;5051573;28;20672;-66
2021/12/05 02:41:53;;;;;;;0.50;0.50;;;;;;;;;;5032249;28;20282;-65
2021/12/05 02:44:21;;;;;;;0.60;0.60;;;;;;;;;;5051289;28;20678;-65
2021/12/05 02:47:02;;;;;;;0.60;0.60;;;;;;;;;;5033565;28;20203;-66
2021/12/05 02:49:30;;;;;;;0.50;0.50;;;;;;;;;;5050436;28;20189;-65
2021/12/05 02:52:01;;;;;;;0.50;0.50;;;;;;;;;;5037109;28;20177;-65
2021/12/05 02:54:29;;;;;;;0.60;0.60;;;;;;;;;;5055509;28;20525;-66
2021/12/05 02:56:56;;;;;;;0.50;0.50;;;;;;;;;;5055793;28;20176;-65
2021/12/05 02:59:29;;;;;;;0.40;0.40;;;;;;;;;;5055536;28;20177;-65
2021/12/05 03:02:03;;;;;;;0.50;0.50;;;;;;;;;;5055164;28;20635;-65
2021/12/05 03:04:32;;;;;;;0.50;0.50;;;;;;;;;;5055418;28;20178;-65
2021/12/05 03:07:00;;;;;;;0.60;0.60;;;;;;;;;;5055357;28;20167;-65
2021/12/05 03:12:04;;;;;;;0.50;0.50;;;;;;;;;;5128005;22;20715;-65
2021/12/05 03:14:30;;;;;;;0.60;0.60;;;;;;;;;;5115828;28;20177;-65
2021/12/05 03:16:56;;;;;;;0.50;0.50;;;;;;;;;;5115856;28;20174;-65
2021/12/05 03:19:22;;;;;;;0.43;0.43;;;;;;;;;;5115893;28;20184;-65
2021/12/05 03:21:49;;;;;;;0.60;0.60;;;;;;;;;;5115538;28;20191;-65
2021/12/05 03:24:16;;;;;;;0.60;0.60;;;;;;;;;;5115844;28;20174;-65
2021/12/05 03:26:43;;;;;;;0.50;0.50;;;;;;;;;;5115701;28;20198;-65
2021/12/05 03:29:11;;;;;;;0.50;0.50;;;;;;;;;;5115683;28;20181;-65
2021/12/05 03:31:37;;;;;;;0.60;0.60;;;;;;;;;;5115231;28;20738;-64
2021/12/05 03:34:03;;;;;;;0.50;0.50;;;;;;;;;;5115531;28;20170;-65
2021/12/05 03:36:30;;;;;;;0.50;0.50;;;;;;;;;;5115365;28;20202;-65
2021/12/05 03:38:56;;;;;;;0.50;0.50;;;;;;;;;;5115331;28;20173;-65
2021/12/05 03:41:22;;;;;;;0.60;0.60;;;;;;;;;;5115072;28;20189;-66
2021/12/05 03:43:50;;;;;;;0.60;0.60;;;;;;;;;;5115285;28;20257;-65
2021/12/05 03:46:16;;;;;;;0.50;0.50;;;;;;;;;;5115302;28;20186;-65
2021/12/05 03:48:44;;;;;;;0.50;0.50;;;;;;;;;;5097172;28;20258;-65
2021/12/05 03:51:12;;;;;;;0.50;0.50;;;;;;;;;;5114869;28;20193;-65
2021/12/05 03:53:38;;;;;;;0.50;0.50;;;;;;;;;;5115053;28;20190;-64
2021/12/05 03:56:05;;;;;;;0.50;0.50;;;;;;;;;;5115104;28;20202;-63
2021/12/05 03:58:31;;;;;;;0.50;0.50;;;;;;;;;;5115119;28;20173;-64
2021/12/05 04:00:58;;;;;;;0.50;0.50;;;;;;;;;;5113880;28;20182;-64
2021/12/05 04:03:25;;;;;;;0.40;0.40;;;;;;;;;;5096522;28;20189;-63
2021/12/05 04:05:51;;;;;;;0.50;0.50;;;;;;;;;;5114846;28;20630;-64
2021/12/05 04:08:18;;;;;;;0.60;0.60;;;;;;;;;;5114822;28;20645;-64
2021/12/05 04:10:46;;;;;;;0.52;0.52;;;;;;;;;;5114452;28;20231;-64
2021/12/05 04:13:12;;;;;;;0.50;0.50;;;;;;;;;;5114786;28;20573;-65
2021/12/05 04:15:39;;;;;;;0.50;0.50;;;;;;;;;;5114802;28;20705;-66
2021/12/05 04:18:05;;;;;;;0.50;0.50;;;;;;;;;;5114709;28;20166;-66
2021/12/05 04:20:31;;;;;;;0.50;0.50;;;;;;;;;;5114267;28;20195;-66
2021/12/05 04:22:57;;;;;;;0.50;0.50;;;;;;;;;;5114651;28;20245;-67
2021/12/05 04:25:23;;;;;;;0.60;0.60;;;;;;;;;;5114614;28;20606;-65
2021/12/05 04:27:50;;;;;;;0.50;0.50;;;;;;;;;;5114569;28;20404;-67
2021/12/05 04:30:18;;;;;;;0.50;0.50;;;;;;;;;;5114134;28;20672;-66
2021/12/05 04:32:44;;;;;;;0.50;0.50;;;;;;;;;;5114423;28;20180;-66
2021/12/05 04:35:10;;;;;;;0.50;0.50;;;;;;;;;;5095893;28;20284;-66
2021/12/05 04:37:37;;;;;;;0.50;0.50;;;;;;;;;;5114364;28;20167;-66
2021/12/05 04:40:05;;;;;;;0.50;0.50;;;;;;;;;;5095809;28;20187;-61
2021/12/05 04:42:31;;;;;;;0.50;0.50;;;;;;;;;;5114479;28;20664;-66
2021/12/05 04:44:57;;;;;;;0.40;0.40;;;;;;;;;;5114224;28;20177;-66
2021/12/05 04:47:23;;;;;;;0.50;0.50;;;;;;;;;;5113939;28;20432;-66
2021/12/05 04:49:50;;;;;;;0.50;0.50;;;;;;;;;;5113875;28;20169;-66
2021/12/05 04:52:16;;;;;;;0.50;0.50;;;;;;;;;;5113960;28;20175;-66
2021/12/05 04:54:42;;;;;;;0.50;0.50;;;;;;;;;;5113925;28;20195;-66
2021/12/05 04:57:08;;;;;;;0.50;0.50;;;;;;;;;;5113989;28;20254;-66
2021/12/05 04:59:36;;;;;;;0.50;0.50;;;;;;;;;;5113967;28;20392;-64
2021/12/05 05:02:03;;;;;;;0.50;0.50;;;;;;;;;;5113716;28;20472;-64
2021/12/05 05:04:30;;;;;;;0.50;0.50;;;;;;;;;;5113812;28;20170;-64
2021/12/05 05:07:00;;;;;;;0.50;0.50;;;;;;;;;;5114167;28;20628;-64
2021/12/05 05:09:27;;;;;;;0.50;0.50;;;;;;;;;;5114687;28;20836;-64
2021/12/05 05:11:53;;;;;;;0.50;0.50;;;;;;;;;;5114350;28;20630;-65
2021/12/05 05:14:19;;;;;;;0.50;0.50;;;;;;;;;;5095296;28;20205;-64
2021/12/05 05:16:47;;;;;;;0.50;0.50;;;;;;;;;;5113568;28;20404;-64
2021/12/05 05:19:16;;;;;;;0.50;0.50;;;;;;;;;;5113322;28;20431;-64
2021/12/05 05:22:03;;;;;;;0.50;0.50;;;;;;;;;;5113057;28;20277;-62
2021/12/05 05:27:35;;;;;;;0.50;0.50;;;;;;;;;;5113372;28;20197;-66
2021/12/05 05:44:02;;;;;;;0.40;0.40;;;;;;;;;;5113059;28;20177;-66
2021/12/05 05:46:17;;;;;;;0.50;0.50;;;;;;;;;;5112267;28;20185;-65
2021/12/05 05:51:18;;;;;;;0.50;0.50;;;;;;;;;;5112614;28;20545;-65
2021/12/05 05:53:48;;;;;;;0.50;0.50;;;;;;;;;;5112765;28;20166;-66
2021/12/05 05:56:18;;;;;;;0.50;0.50;;;;;;;;;;5112764;28;20673;-65
2021/12/05 05:58:51;;;;;;;0.50;0.50;;;;;;;;;;5112656;28;20252;-66
2021/12/05 06:01:39;;;;;;;0.40;0.40;;;;;;;;;;5112646;28;20190;-66
2021/12/05 06:04:05;;;;;;;0.50;0.50;;;;;;;;;;5112156;28;20208;-66
2021/12/05 06:06:32;;;;;;;0.60;0.60;;;;;;;;;;5112566;28;20165;-65
2021/12/05 06:08:58;;;;;;;0.40;0.40;;;;;;;;;;5112509;28;20169;-66
2021/12/05 06:11:24;;;;;;;0.50;0.50;;;;;;;;;;5112202;28;20270;-65
2021/12/05 06:13:51;;;;;;;0.50;0.50;;;;;;;;;;5112454;28;20173;-65
2021/12/05 06:16:17;;;;;;;0.50;0.50;;;;;;;;;;5110907;28;20728;-66
2021/12/05 06:18:44;;;;;;;0.50;0.50;;;;;;;;;;5112326;28;20544;-66
2021/12/05 06:21:11;;;;;;;0.50;0.50;;;;;;;;;;5112105;28;20186;-66
2021/12/05 06:23:37;;;;;;;0.50;0.50;;;;;;;;;;5112082;28;20176;-67
2021/12/05 06:26:05;;;;;;;0.50;0.50;;;;;;;;;;5112227;28;20353;-64
2021/12/05 06:47:12;;;;;;;0.50;0.50;;;;;;;;;;5107183;28;20235;-66
2021/12/05 06:49:39;;;;;;;0.50;0.50;;;;;;;;;;5100192;28;20196;-64
2021/12/05 06:52:07;;;;;;;0.40;0.40;;;;;;;;;;5094026;28;20168;-66
2021/12/05 06:54:33;;;;;;;0.50;0.50;;;;;;;;;;5091383;28;20206;-66
2021/12/05 06:56:59;;;;;;;0.50;0.50;;;;;;;;;;5091679;28;20175;-65
2021/12/05 06:59:25;;;;;;;0.50;0.50;;;;;;;;;;5091814;28;20178;-65
2021/12/05 07:01:51;;;;;;;0.50;0.50;;;;;;;;;;5091177;28;20186;-65
2021/12/05 07:07:04;;;;;;;0.50;0.50;;;;;;;;;;5074706;28;20906;-66
2021/12/05 07:09:31;;;;;;;0.60;0.60;;;;;;;;;;5111297;28;20170;-65
2021/12/05 07:17:05;;;;;;;0.60;0.60;;;;;;;;;;5101243;28;20749;-66
2021/12/05 07:20:07;;;;;;;0.50;0.50;;;;;;;;;;5091477;28;20228;-66
2021/12/05 07:22:43;;;;;;;0.50;0.50;;;;;;;;;;5091044;28;20184;-66
2021/12/05 07:25:13;;;;;;;0.60;0.60;;;;;;;;;;5091439;28;20648;-66
2021/12/05 07:44:16;;;;;;;0.70;0.70;;;;;;;;;;5051659;28;20206;-66
2021/12/05 07:46:41;;;;;;;0.50;0.50;;;;;;;;;;5052223;28;20180;-66
2021/12/05 07:49:10;;;;;;;0.50;0.50;;;;;;;;;;5081921;28;20205;-66
2021/12/05 07:51:41;;;;;;;0.43;0.43;;;;;;;;;;5114864;28;20438;-66
2021/12/05 07:54:33;;;;;;;0.60;0.60;;;;;;;;;;5114794;28;20173;-69
2021/12/05 07:57:16;;;;;;;0.50;0.50;;;;;;;;;;5100773;28;20253;-66
2021/12/05 08:16:04;;;;;;;0.60;0.60;;;;;;;;;;5114309;28;20223;-66
2021/12/05 08:18:31;;;;;;;0.60;0.60;;;;;;;;;;5114454;28;20173;-65
2021/12/05 08:20:58;;;;;;;0.50;0.50;;;;;;;;;;5114851;28;20243;-66
2021/12/05 08:23:24;;;;;;;0.50;0.50;;;;;;;;;;5112890;28;20591;-65
2021/12/05 08:26:00;;;;;;;0.50;0.50;;;;;;;;;;5105027;28;20185;-66
2021/12/05 08:31:18;;;;;;;0.60;0.60;;;;;;;;;;5114145;28;20218;-66
2021/12/05 08:34:20;;;;;;;0.50;0.50;;;;;;;;;;5114751;28;20180;-66
2021/12/05 09:29:08;;;;;;;0.50;0.50;;;;;;;;;;5072747;28;20184;-67
2021/12/05 10:01:58;;;;;;;0.50;0.50;;;;;;;;;;5071808;28;20685;-67
2021/12/05 10:38:31;;;;;;;0.50;0.50;;;;;;;;;;5072082;28;20274;-66
2021/12/05 10:41:21;;;;;;;0.50;0.50;;;;;;;;;;5071423;28;20196;-65
2021/12/05 10:43:50;;;;;;;0.60;0.60;;;;;;;;;;5084326;28;20238;-65
2021/12/05 10:46:17;;;;;;;0.50;0.50;;;;;;;;;;5090893;28;20181;-66
2021/12/05 10:48:45;;;;;;;0.50;0.50;;;;;;;;;;5090445;28;20195;-66
2021/12/05 10:51:13;;;;;;;0.50;0.50;;;;;;;;;;5090049;28;20197;-66
2021/12/05 10:53:44;;;;;;;0.50;0.50;;;;;;;;;;5091804;28;20568;-66
2021/12/05 10:56:12;;;;;;;0.50;0.50;;;;;;;;;;5091786;28;20242;-66
2021/12/05 10:58:38;;;;;;;0.50;0.50;;;;;;;;;;5090234;28;20184;-66
2021/12/05 11:01:08;;;;;;;0.57;0.57;;;;;;;;;;5088072;28;20195;-67
2021/12/05 11:03:34;;;;;;;0.50;0.50;;;;;;;;;;5090684;28;20411;-66
2021/12/05 11:06:00;;;;;;;0.50;0.50;;;;;;;;;;5091434;28;20185;-67
2021/12/05 11:08:35;;;;;;;0.50;0.50;;;;;;;;;;5091461;28;20188;-67
2021/12/05 11:11:15;;;;;;;0.50;0.50;;;;;;;;;;5085617;28;20496;-67
2021/12/05 11:13:43;;;;;;;0.50;0.50;;;;;;;;;;5095522;28;20597;-67
2021/12/05 11:16:28;;;;;;;0.50;0.50;;;;;;;;;;5094772;28;20274;-67
2021/12/05 11:18:54;;;;;;;0.50;0.50;;;;;;;;;;5094632;28;20212;-67
2021/12/05 11:21:34;;;;;;;0.40;0.40;;;;;;;;;;5095172;28;20221;-65
2021/12/05 11:24:22;;;;;;;0.52;0.52;;;;;;;;;;5093876;28;20400;-68
2021/12/05 11:27:08;;;;;;;0.40;0.40;;;;;;;;;;5093293;28;20170;-68
2021/12/05 11:29:49;;;;;;;0.50;0.50;;;;;;;;;;5076803;28;20265;-67
2021/12/05 11:32:18;;;;;;;0.40;0.40;;;;;;;;;;5094903;28;20197;-67
2021/12/05 11:34:45;;;;;;;0.40;0.40;;;;;;;;;;5095038;28;20174;-67
2021/12/05 11:37:11;;;;;;;0.40;0.40;;;;;;;;;;5095015;28;20194;-67
2021/12/05 11:39:40;;;;;;;0.40;0.40;;;;;;;;;;5095037;28;20190;-67
2021/12/05 11:42:13;;;;;;;0.50;0.50;;;;;;;;;;5094627;28;20187;-67
2021/12/05 11:44:41;;;;;;;0.50;0.50;;;;;;;;;;5094936;28;20196;-67
2021/12/05 11:47:19;;;;;;;0.40;0.40;;;;;;;;;;5094865;28;20163;-64
2021/12/05 11:49:45;;;;;;;0.40;0.40;;;;;;;;;;5095159;28;20169;-64
2021/12/05 11:52:12;;;;;;;0.40;0.40;;;;;;;;;;5094817;28;20197;-64
2021/12/05 11:54:43;;;;;;;0.40;0.40;;;;;;;;;;5093616;28;20188;-67
2021/12/05 11:57:27;;;;;;;0.50;0.50;;;;;;;;;;5094625;28;20173;-67
2021/12/05 11:59:55;;;;;;;0.40;0.40;;;;;;;;;;5094575;28;20625;-64
2021/12/05 12:02:22;;;;;;;0.50;0.50;;;;;;;;;;5077098;28;20198;-65
2021/12/05 12:04:51;;;;;;;0.40;0.40;;;;;;;;;;5074071;28;20230;-65
2021/12/05 12:07:17;;;;;;;0.40;0.40;;;;;;;;;;5073642;28;20178;-65
2021/12/05 12:09:44;;;;;;;0.50;0.50;;;;;;;;;;5074298;28;20174;-65
2021/12/05 12:12:10;;;;;;;0.40;0.40;;;;;;;;;;5072403;28;20533;-65
2021/12/05 12:14:36;;;;;;;0.50;0.50;;;;;;;;;;5074144;28;20820;-65
2021/12/05 12:17:07;;;;;;;0.50;0.50;;;;;;;;;;5073968;28;20775;-65
2021/12/05 12:19:35;;;;;;;0.50;0.50;;;;;;;;;;5073875;28;20175;-67
2021/12/05 12:22:03;;;;;;;0.50;0.50;;;;;;;;;;5072899;28;20565;-65
2021/12/05 12:24:29;;;;;;;0.50;0.50;;;;;;;;;;5073856;28;20171;-65
2021/12/05 12:26:55;;;;;;;0.40;0.40;;;;;;;;;;5073965;28;20202;-65
2021/12/05 12:29:21;;;;;;;0.40;0.40;;;;;;;;;;5073469;28;20229;-65
2021/12/05 12:31:48;;;;;;;0.40;0.40;;;;;;;;;;5072296;28;20498;-66
2021/12/05 12:34:16;;;;;;;0.40;0.40;;;;;;;;;;5073655;28;20179;-66
2021/12/05 12:36:42;;;;;;;0.40;0.40;;;;;;;;;;5054678;28;20210;-67
2021/12/05 12:39:31;;;;;;;0.40;0.40;;;;;;;;;;5073434;28;20246;-66
2021/12/05 12:42:20;;;;;;;0.40;0.40;;;;;;;;;;5062526;28;20293;-66
2021/12/05 12:44:57;;;;;;;0.40;0.40;;;;;;;;;;5073370;28;20179;-66
2021/12/05 12:47:49;;;;;;;0.50;0.50;;;;;;;;;;5073421;28;20201;-66
2021/12/05 12:50:36;;;;;;;0.50;0.50;;;;;;;;;;5075260;28;20266;-65
2021/12/05 12:53:05;;;;;;;0.40;0.40;;;;;;;;;;5073278;28;20199;-65
2021/12/05 12:55:33;;;;;;;0.45;0.45;;;;;;;;;;5073035;28;20198;-65
2021/12/05 12:58:03;;;;;;;0.50;0.50;;;;;;;;;;5073409;28;20177;-65
2021/12/05 13:00:31;;;;;;;0.40;0.40;;;;;;;;;;5073440;28;20169;-66
2021/12/05 13:03:01;;;;;;;0.50;0.50;;;;;;;;;;5073161;28;20222;-65
2021/12/05 13:05:52;;;;;;;0.50;0.50;;;;;;;;;;5072997;28;20175;-65
2021/12/05 13:11:06;;;;;;;0.50;0.50;;;;;;;;;;5072799;28;20259;-65
2021/12/05 13:13:33;;;;;;;0.50;0.50;;;;;;;;;;5054800;28;20178;-65
2021/12/05 13:16:19;;;;;;;0.40;0.40;;;;;;;;;;5054520;28;20788;-65
2021/12/05 13:18:47;;;;;;;0.50;0.50;;;;;;;;;;5072395;28;20235;-65
2021/12/05 13:21:18;;;;;;;0.50;0.50;;;;;;;;;;5072103;28;20194;-65
2021/12/05 13:23:50;;;;;;;0.50;0.50;;;;;;;;;;5072261;28;20166;-65
2021/12/05 13:26:34;;;;;;;0.50;0.50;;;;;;;;;;5072523;28;20597;-65
2021/12/05 13:29:15;;;;;;;0.40;0.40;;;;;;;;;;5072744;28;20707;-65
2021/12/05 13:31:46;;;;;;;0.50;0.50;;;;;;;;;;5072358;28;20205;-67
2021/12/05 13:34:16;;;;;;;0.40;0.40;;;;;;;;;;5071587;28;20183;-67
2021/12/05 13:36:44;;;;;;;0.60;0.60;;;;;;;;;;5072486;28;20203;-67
2021/12/05 13:39:28;;;;;;;0.50;0.50;;;;;;;;;;5072376;28;20538;-67
2021/12/05 13:42:05;;;;;;;0.40;0.40;;;;;;;;;;5072177;28;20281;-65
2021/12/05 13:44:50;;;;;;;0.43;0.43;;;;;;;;;;5072792;28;20170;-66
2021/12/05 13:47:18;;;;;;;0.40;0.40;;;;;;;;;;5054402;28;20549;-66
2021/12/05 13:49:45;;;;;;;0.50;0.50;;;;;;;;;;5072257;28;20174;-66
2021/12/05 13:52:31;;;;;;;0.50;0.50;;;;;;;;;;5071982;28;20202;-66
2021/12/05 13:55:16;;;;;;;0.40;0.40;;;;;;;;;;5072127;28;20198;-67
2021/12/05 13:58:02;;;;;;;0.50;0.50;;;;;;;;;;5072223;28;20173;-65
2021/12/05 14:00:42;;;;;;;0.50;0.50;;;;;;;;;;5058341;28;20211;-66
2021/12/05 14:03:08;;;;;;;0.50;0.50;;;;;;;;;;5072082;28;20197;-66
2021/12/05 14:05:34;;;;;;;0.53;0.53;;;;;;;;;;5072046;28;20657;-66
2021/12/05 14:08:00;;;;;;;0.40;0.40;;;;;;;;;;5071922;28;20417;-66
2021/12/05 14:10:26;;;;;;;0.50;0.50;;;;;;;;;;5071567;28;20185;-66
2021/12/05 14:12:52;;;;;;;0.45;0.45;;;;;;;;;;5071813;28;20300;-66
2021/12/05 14:15:18;;;;;;;0.50;0.50;;;;;;;;;;5071847;28;20230;-65
2021/12/05 14:17:48;;;;;;;0.50;0.50;;;;;;;;;;5071852;28;20170;-65
2021/12/05 14:20:20;;;;;;;0.40;0.40;;;;;;;;;;5071545;28;20193;-66
2021/12/05 14:22:48;;;;;;;0.50;0.50;;;;;;;;;;5053687;28;20198;-66
2021/12/05 14:25:21;;;;;;;0.50;0.50;;;;;;;;;;5071678;28;20178;-66
2021/12/05 14:27:54;;;;;;;0.50;0.50;;;;;;;;;;5071745;28;20182;-65
2021/12/05 14:30:23;;;;;;;0.60;0.60;;;;;;;;;;5071395;28;20181;-66
2021/12/05 14:32:53;;;;;;;0.50;0.50;;;;;;;;;;5071627;28;20216;-66
2021/12/05 14:35:21;;;;;;;0.50;0.50;;;;;;;;;;5071383;28;20194;-66
2021/12/05 14:37:49;;;;;;;0.50;0.50;;;;;;;;;;5071565;28;20223;-65
2021/12/05 14:40:25;;;;;;;0.50;0.50;;;;;;;;;;5071430;28;20250;-66
2021/12/05 14:42:52;;;;;;;0.50;0.50;;;;;;;;;;5071243;28;20196;-65
2021/12/05 14:45:22;;;;;;;0.50;0.50;;;;;;;;;;5071224;28;20186;-65
2021/12/05 14:47:48;;;;;;;0.50;0.50;;;;;;;;;;5053392;28;20183;-65
2021/12/05 14:50:16;;;;;;;0.40;0.40;;;;;;;;;;5071498;28;20714;-65
2021/12/05 14:52:43;;;;;;;0.50;0.50;;;;;;;;;;5071497;28;20189;-65
2021/12/05 14:55:11;;;;;;;0.50;0.50;;;;;;;;;;5071497;28;20205;-66
2021/12/05 14:57:41;;;;;;;0.40;0.40;;;;;;;;;;5071381;28;20636;-66
2021/12/05 15:00:23;;;;;;;0.50;0.50;;;;;;;;;;5061334;28;20184;-66
2021/12/05 15:02:51;;;;;;;0.50;0.50;;;;;;;;;;5091672;28;20197;-66
2021/12/05 15:05:18;;;;;;;0.40;0.40;;;;;;;;;;5091371;28;20171;-66
2021/12/05 15:07:44;;;;;;;0.50;0.50;;;;;;;;;;5091514;28;20260;-66
2021/12/05 15:10:12;;;;;;;0.40;0.40;;;;;;;;;;5073232;28;20298;-66
2021/12/05 15:12:38;;;;;;;0.50;0.50;;;;;;;;;;5111827;22;20236;-64
2021/12/05 15:15:07;;;;;;;0.40;0.40;;;;;;;;;;5091156;28;20737;-64
2021/12/05 15:17:35;;;;;;;0.50;0.50;;;;;;;;;;5091320;28;20167;-64
2021/12/05 15:20:04;;;;;;;0.50;0.50;;;;;;;;;;5091421;28;20172;-65
2021/12/05 15:22:31;;;;;;;0.50;0.50;;;;;;;;;;5079578;28;20205;-64
2021/12/05 15:25:01;;;;;;;0.50;0.50;;;;;;;;;;5053090;28;20177;-64
2021/12/05 15:27:30;;;;;;;0.50;0.50;;;;;;;;;;5070595;28;20650;-64
2021/12/05 15:29:59;;;;;;;0.50;0.50;;;;;;;;;;5054930;28;20668;-65
2021/12/05 15:32:26;;;;;;;0.60;0.60;;;;;;;;;;5061570;28;20203;-64
2021/12/05 15:34:54;;;;;;;0.40;0.40;;;;;;;;;;5064786;28;20174;-64
2021/12/05 15:37:20;;;;;;;0.50;0.50;;;;;;;;;;5070865;28;20177;-64
2021/12/05 15:39:47;;;;;;;0.50;0.50;;;;;;;;;;5071102;28;20166;-65
2021/12/05 15:42:21;;;;;;;0.50;0.50;;;;;;;;;;5070128;28;20191;-65
2021/12/05 15:44:47;;;;;;;0.50;0.50;;;;;;;;;;5070815;28;20170;-64
2021/12/05 15:47:32;;;;;;;0.50;0.50;;;;;;;;;;5070944;28;20178;-64
2021/12/05 15:49:58;;;;;;;0.50;0.50;;;;;;;;;;5070849;28;20195;-65
2021/12/05 15:52:33;;;;;;;0.50;0.50;;;;;;;;;;5070224;28;20267;-65
2021/12/05 15:55:00;;;;;;;0.40;0.40;;;;;;;;;;5070675;28;20457;-64
2021/12/05 15:57:31;;;;;;;0.60;0.60;;;;;;;;;;5071600;28;20590;-64
2021/12/05 15:59:58;;;;;;;0.50;0.50;;;;;;;;;;5056124;28;20221;-64
2021/12/05 16:02:24;;;;;;;0.60;0.60;;;;;;;;;;5073933;28;20195;-64
2021/12/05 16:04:50;;;;;;;0.45;0.45;;;;;;;;;;5073711;28;20174;-64
2021/12/05 16:07:17;;;;;;;0.50;0.50;;;;;;;;;;5074291;28;20557;-64
2021/12/05 16:09:44;;;;;;;0.60;0.60;;;;;;;;;;5074104;28;20528;-64
2021/12/05 16:12:13;;;;;;;0.50;0.50;;;;;;;;;;5073709;28;20208;-64
2021/12/05 16:14:44;;;;;;;0.50;0.50;;;;;;;;;;5073655;28;20177;-64
2021/12/05 16:17:16;;;;;;;0.50;0.50;;;;;;;;;;5056177;28;20193;-64
2021/12/05 16:20:01;;;;;;;0.60;0.60;;;;;;;;;;5073867;28;20167;-64
2021/12/05 16:22:27;;;;;;;0.60;0.60;;;;;;;;;;5073775;28;20552;-64
2021/12/05 16:24:53;;;;;;;0.50;0.50;;;;;;;;;;5073883;28;20195;-64
2021/12/05 16:27:19;;;;;;;0.60;0.60;;;;;;;;;;5073343;28;20749;-64
2021/12/05 16:29:45;;;;;;;0.50;0.50;;;;;;;;;;5073896;28;20177;-64
2021/12/05 16:32:12;;;;;;;0.50;0.50;;;;;;;;;;5055200;28;20429;-64
2021/12/05 16:34:42;;;;;;;0.50;0.50;;;;;;;;;;5073971;28;20668;-64
2021/12/05 16:37:09;;;;;;;0.50;0.50;;;;;;;;;;5073707;28;20186;-64
2021/12/05 16:39:39;;;;;;;0.50;0.50;;;;;;;;;;5074112;28;20171;-64
2021/12/05 16:42:10;;;;;;;0.50;0.50;;;;;;;;;;5073558;28;20201;-64
2021/12/05 16:44:40;;;;;;;0.50;0.50;;;;;;;;;;5074459;28;20180;-64
2021/12/05 16:47:10;;;;;;;0.50;0.50;;;;;;;;;;5073916;28;20172;-64
2021/12/05 16:49:38;;;;;;;0.40;0.40;;;;;;;;;;5073182;28;20179;-64
2021/12/05 16:52:06;;;;;;;0.50;0.50;;;;;;;;;;5073556;28;20203;-64
2021/12/05 16:54:42;;;;;;;0.50;0.50;;;;;;;;;;5073957;28;20177;-64
2021/12/05 16:57:12;;;;;;;0.50;0.50;;;;;;;;;;5073749;28;20179;-64
2021/12/05 16:59:37;;;;;;;0.40;0.40;;;;;;;;;;5072833;28;20567;-64
2021/12/05 17:02:13;;;;;;;0.50;0.50;;;;;;;;;;5073116;28;20195;-64
2021/12/05 17:04:57;;;;;;;0.50;0.50;;;;;;;;;;5073176;28;20815;-64
2021/12/05 17:07:37;;;;;;;0.50;0.50;;;;;;;;;;5073634;28;20181;-64
2021/12/05 17:10:06;;;;;;;0.60;0.60;;;;;;;;;;5072788;28;20220;-65
2021/12/05 17:12:33;;;;;;;0.50;0.50;;;;;;;;;;5073677;28;20280;-64
2021/12/05 17:15:20;;;;;;;0.60;0.60;;;;;;;;;;5073386;28;20538;-64
2021/12/05 17:17:46;;;;;;;0.50;0.50;;;;;;;;;;5073236;28;20530;-65
2021/12/05 17:20:21;;;;;;;0.50;0.50;;;;;;;;;;5073176;28;20176;-64
2021/12/05 17:22:59;;;;;;;0.50;0.50;;;;;;;;;;5071508;28;20951;-64
2021/12/05 17:25:26;;;;;;;0.60;0.60;;;;;;;;;;5072989;28;20224;-64
2021/12/05 17:27:52;;;;;;;0.50;0.50;;;;;;;;;;5073014;28;20172;-64
2021/12/05 17:30:18;;;;;;;0.50;0.50;;;;;;;;;;5078052;28;20168;-64
2021/12/05 17:32:44;;;;;;;0.50;0.50;;;;;;;;;;5072845;28;20196;-64
2021/12/05 17:35:10;;;;;;;0.50;0.50;;;;;;;;;;5072388;28;20613;-64
2021/12/05 17:37:36;;;;;;;0.50;0.50;;;;;;;;;;5072740;28;20857;-64
2021/12/05 17:40:06;;;;;;;0.50;0.50;;;;;;;;;;5072636;28;20229;-64
2021/12/05 17:42:32;;;;;;;0.50;0.50;;;;;;;;;;5072561;28;20232;-64
2021/12/05 17:44:59;;;;;;;0.60;0.60;;;;;;;;;;5072078;28;20175;-64
2021/12/05 17:47:26;;;;;;;0.50;0.50;;;;;;;;;;5054781;28;20559;-63
2021/12/05 17:49:53;;;;;;;0.60;0.60;;;;;;;;;;5072331;28;20175;-64
2021/12/05 17:52:21;;;;;;;0.40;0.40;;;;;;;;;;5072115;28;20192;-64
2021/12/05 17:57:20;;;;;;;0.50;0.50;;;;;;;;;;5072290;28;20199;-64
2021/12/05 18:05:08;;;;;;;0.47;0.47;;;;;;;;;;5072411;28;20187;-64
2021/12/05 18:07:34;;;;;;;0.50;0.50;;;;;;;;;;5071010;28;20226;-64
2021/12/05 18:10:01;;;;;;;0.60;0.60;;;;;;;;;;5071904;28;20236;-64
2021/12/05 18:12:35;;;;;;;0.50;0.50;;;;;;;;;;5071634;28;20200;-64
2021/12/05 18:15:04;;;;;;;0.50;0.50;;;;;;;;;;5053855;28;20179;-64
2021/12/05 18:17:30;;;;;;;0.50;0.50;;;;;;;;;;5071551;28;20547;-64
2021/12/05 18:19:56;;;;;;;0.40;0.40;;;;;;;;;;5071415;28;20182;-64
2021/12/05 18:22:22;;;;;;;0.50;0.50;;;;;;;;;;5071539;28;20626;-64
2021/12/05 18:24:48;;;;;;;0.50;0.50;;;;;;;;;;5071778;28;20167;-65
2021/12/05 18:27:15;;;;;;;0.50;0.50;;;;;;;;;;5072005;28;20217;-64
2021/12/05 18:29:40;;;;;;;0.50;0.50;;;;;;;;;;5071883;28;20174;-64
2021/12/05 18:32:10;;;;;;;0.50;0.50;;;;;;;;;;5071535;28;20589;-65
2021/12/05 18:34:36;;;;;;;0.50;0.50;;;;;;;;;;5053946;28;20418;-64
2021/12/05 18:37:03;;;;;;;0.50;0.50;;;;;;;;;;5071591;28;20208;-64
2021/12/05 18:39:31;;;;;;;0.50;0.50;;;;;;;;;;5070926;28;20438;-65
2021/12/05 18:41:58;;;;;;;0.50;0.50;;;;;;;;;;5071620;28;20188;-65
2021/12/05 18:44:28;;;;;;;0.40;0.40;;;;;;;;;;5071441;28;20163;-64
2021/12/05 18:46:55;;;;;;;0.50;0.50;;;;;;;;;;5072140;28;20727;-64
2021/12/05 18:49:22;;;;;;;0.50;0.50;;;;;;;;;;5071680;28;20252;-63
2021/12/05 18:51:49;;;;;;;0.50;0.50;;;;;;;;;;5070903;28;20199;-65
2021/12/05 18:54:15;;;;;;;0.50;0.50;;;;;;;;;;5072041;28;20251;-65
2021/12/05 18:56:41;;;;;;;0.50;0.50;;;;;;;;;;5071348;28;20313;-65
2021/12/05 18:59:07;;;;;;;0.60;0.60;;;;;;;;;;5071577;28;20409;-65
2021/12/05 19:06:49;;;;;;;0.50;0.50;;;;;;;;;;5071291;28;20183;-65
2021/12/05 19:12:03;;;;;;;0.50;0.50;;;;;;;;;;5029039;28;20223;-65
2021/12/05 19:14:30;;;;;;;0.50;0.50;;;;;;;;;;5052748;28;20661;-65
2021/12/05 19:16:58;;;;;;;0.60;0.60;;;;;;;;;;5071227;28;20234;-65
2021/12/05 19:19:25;;;;;;;0.50;0.50;;;;;;;;;;5053141;28;20169;-65
2021/12/05 19:21:51;;;;;;;0.50;0.50;;;;;;;;;;5070872;28;20268;-65
2021/12/05 19:24:18;;;;;;;0.60;0.60;;;;;;;;;;5053045;28;20690;-64
2021/12/05 19:26:44;;;;;;;0.50;0.50;;;;;;;;;;5071252;28;20176;-65
2021/12/05 19:29:10;;;;;;;0.60;0.60;;;;;;;;;;5073601;28;20169;-65
2021/12/05 19:31:37;;;;;;;0.50;0.50;;;;;;;;;;5076913;28;20613;-65
2021/12/05 19:34:03;;;;;;;0.50;0.50;;;;;;;;;;5058459;28;20176;-65
2021/12/05 19:36:30;;;;;;;0.50;0.50;;;;;;;;;;5040199;28;20208;-64
2021/12/05 19:38:56;;;;;;;0.40;0.40;;;;;;;;;;5056119;28;20165;-64
2021/12/05 19:41:23;;;;;;;0.40;0.40;;;;;;;;;;5055777;28;20171;-63
2021/12/05 19:43:49;;;;;;;0.40;0.40;;;;;;;;;;5055323;28;20441;-65
2021/12/05 19:46:17;;;;;;;0.60;0.60;;;;;;;;;;5055185;28;20567;-65
2021/12/05 19:48:43;;;;;;;0.50;0.50;;;;;;;;;;5067505;28;20171;-65
2021/12/05 19:51:10;;;;;;;0.50;0.50;;;;;;;;;;5075567;28;20542;-64
2021/12/05 19:53:38;;;;;;;0.50;0.50;;;;;;;;;;5075517;28;20204;-65
2021/12/05 19:56:05;;;;;;;0.50;0.50;;;;;;;;;;5076347;28;20218;-65
2021/12/05 19:58:31;;;;;;;0.50;0.50;;;;;;;;;;5075735;28;20175;-65
2021/12/05 20:00:57;;;;;;;0.50;0.50;;;;;;;;;;5074954;28;20181;-64
2021/12/05 20:03:23;;;;;;;0.60;0.60;;;;;;;;;;5074445;28;20571;-65
2021/12/05 20:05:49;;;;;;;0.50;0.50;;;;;;;;;;5074050;28;20180;-65
2021/12/05 20:08:15;;;;;;;0.50;0.50;;;;;;;;;;5074482;28;20422;-65
2021/12/05 20:10:43;;;;;;;0.50;0.50;;;;;;;;;;5074077;28;20494;-65
2021/12/05 20:13:09;;;;;;;0.47;0.47;;;;;;;;;;5074541;28;20586;-63
2021/12/05 20:15:35;;;;;;;0.50;0.50;;;;;;;;;;5074136;28;20203;-65
2021/12/05 20:18:02;;;;;;;0.50;0.50;;;;;;;;;;5073853;28;20209;-64
2021/12/05 20:20:28;;;;;;;0.40;0.40;;;;;;;;;;5074071;28;20176;-65
2021/12/05 20:22:55;;;;;;;0.50;0.50;;;;;;;;;;5074087;28;20196;-64
2021/12/05 20:25:22;;;;;;;0.60;0.60;;;;;;;;;;5073809;28;20237;-65
2021/12/05 20:27:48;;;;;;;0.50;0.50;;;;;;;;;;5073502;28;20583;-64
2021/12/05 20:30:15;;;;;;;0.50;0.50;;;;;;;;;;5055889;28;20179;-63